createdAt,value
2022-11-12T00:02:43.314Z,20.00
2022-11-12T00:05:49.489Z,20.52
2022-11-12T00:08:54.144Z,19.88
2022-11-12T00:15:02.818Z,20.45
2022-11-12T00:18:07.691Z,22.25
2022-11-12T00:21:11.873Z,20.20
2022-11-12T00:24:16.269Z,21.55
2022-11-12T00:27:20.794Z,20.60
2022-11-12T00:30:25.305Z,20.95
2022-11-12T00:33:29.587Z,23.10
2022-11-12T00:36:34.037Z,21.85
2022-11-12T00:39:38.474Z,22.30
2022-11-12T00:42:42.971Z,23.73
2022-11-12T00:45:47.355Z,24.15
2022-11-12T00:48:51.546Z,23.40
2022-11-12T00:51:55.828Z,23.27
2022-11-12T00:55:00.467Z,22.67
2022-11-12T00:58:04.943Z,22.23
2022-11-12T01:01:13.077Z,24.73
2022-11-12T01:04:17.910Z,24.35
2022-11-12T01:07:22.145Z,23.40
2022-11-12T01:10:26.703Z,23.30
2022-11-12T01:13:31.330Z,23.73
2022-11-12T01:16:39.066Z,24.38
2022-11-12T01:19:43.807Z,23.30
2022-11-12T01:22:48.333Z,22.65
2022-11-12T01:25:52.861Z,23.92
2022-11-12T01:32:01.781Z,22.70
2022-11-12T01:35:06.838Z,22.45
2022-11-12T01:38:11.138Z,21.77
2022-11-12T01:41:21.215Z,23.02
2022-11-12T01:44:30.413Z,23.15
2022-11-12T01:47:35.976Z,22.75
2022-11-12T01:50:41.075Z,22.00
2022-11-12T01:53:49.688Z,22.40
2022-11-12T01:56:57.015Z,21.90
2022-11-12T02:00:08.651Z,22.02
2022-11-12T02:03:20.387Z,22.92
2022-11-12T02:06:25.410Z,21.13
2022-11-12T02:09:31.062Z,21.40
2022-11-12T02:12:54.417Z,22.02
2022-11-12T02:15:58.912Z,21.85
2022-11-12T02:19:04.390Z,22.83
2022-11-12T02:22:08.682Z,21.85
2022-11-12T02:28:18.680Z,21.38
2022-11-12T02:31:22.998Z,21.42
2022-11-12T02:34:27.504Z,21.90
2022-11-12T02:37:31.840Z,22.85
2022-11-12T02:40:36.607Z,21.45
2022-11-12T02:43:41.382Z,22.13
2022-11-12T02:46:45.602Z,21.75
2022-11-12T02:49:50.173Z,22.77
2022-11-12T02:52:55.582Z,23.17
2022-11-12T02:56:01.448Z,22.92
2022-11-12T02:59:06.011Z,23.52
2022-11-12T03:02:10.454Z,24.23
2022-11-12T03:05:15.090Z,23.98
2022-11-12T03:08:19.747Z,23.05
2022-11-12T03:11:24.442Z,23.85
2022-11-12T03:14:28.896Z,23.10
2022-11-12T03:20:39.050Z,22.67
2022-11-12T03:23:43.664Z,24.60
2022-11-12T03:26:48.025Z,23.80
2022-11-12T03:29:52.467Z,25.25
2022-11-12T03:32:56.976Z,23.58
2022-11-12T03:36:01.503Z,24.35
2022-11-12T03:39:06.075Z,24.67
2022-11-12T03:42:10.413Z,26.17
2022-11-12T03:45:16.158Z,26.02
2022-11-12T03:48:20.674Z,26.33
2022-11-12T03:51:24.720Z,24.15
2022-11-12T03:54:29.173Z,23.25
2022-11-12T03:57:34.363Z,24.02
2022-11-12T04:00:39.145Z,25.50
2022-11-12T04:03:43.325Z,24.00
2022-11-12T04:07:05.966Z,25.92
2022-11-12T04:10:10.187Z,23.83
2022-11-12T04:13:29.758Z,23.27
2022-11-12T04:16:52.795Z,24.42
2022-11-12T04:20:15.678Z,23.52
2022-11-12T04:23:19.795Z,23.75
2022-11-12T04:26:24.396Z,24.23
2022-11-12T04:29:46.919Z,23.75
2022-11-12T04:32:58.429Z,23.05
2022-11-12T04:36:02.910Z,23.45
2022-11-12T04:39:07.355Z,24.83
2022-11-12T04:42:30.304Z,23.80
2022-11-12T04:45:34.893Z,23.25
2022-11-12T04:48:39.402Z,23.67
2022-11-12T04:52:01.871Z,23.60
2022-11-12T04:55:07.198Z,25.35
2022-11-12T04:58:11.556Z,23.00
2022-11-12T05:01:15.924Z,24.77
2022-11-12T05:04:20.171Z,24.45
2022-11-12T05:07:24.571Z,25.58
2022-11-12T05:10:30.905Z,25.52
2022-11-12T05:13:35.249Z,27.00
2022-11-12T05:16:40.059Z,24.42
2022-11-12T05:19:44.735Z,27.00
2022-11-12T05:23:05.059Z,25.98
2022-11-12T05:26:10.585Z,26.95
2022-11-12T05:29:14.898Z,27.40
2022-11-12T05:32:19.281Z,28.73
2022-11-12T05:35:23.843Z,28.15
2022-11-12T05:38:28.477Z,28.42
2022-11-12T05:41:51.359Z,27.90
2022-11-12T05:48:02.179Z,28.88
2022-11-12T05:51:13.054Z,30.85
2022-11-12T05:54:31.094Z,29.45
2022-11-12T05:57:35.529Z,31.20
2022-11-12T06:00:40.354Z,31.90
2022-11-12T06:03:44.674Z,30.42
2022-11-12T06:06:48.833Z,32.50
2022-11-12T06:09:53.596Z,30.83
2022-11-12T06:12:58.513Z,31.30
2022-11-12T06:16:03.495Z,31.95
2022-11-12T06:19:07.949Z,33.40
2022-11-12T06:22:13.187Z,32.13
2022-11-12T06:25:18.195Z,30.65
2022-11-12T06:28:22.375Z,31.92
2022-11-12T06:31:26.742Z,31.77
2022-11-12T06:34:31.211Z,32.00
2022-11-12T06:37:35.620Z,32.20
2022-11-12T06:40:40.210Z,31.15
2022-11-12T06:43:44.624Z,32.35
2022-11-12T06:46:48.837Z,32.00
2022-11-12T06:49:53.246Z,32.78
2022-11-12T06:53:00.771Z,33.22
2022-11-12T06:56:07.481Z,30.83
2022-11-12T06:59:12.131Z,31.10
2022-11-12T07:02:16.632Z,32.35
2022-11-12T07:05:20.950Z,32.08
2022-11-12T07:08:25.787Z,32.13
2022-11-12T07:11:31.051Z,32.33
2022-11-12T07:14:35.707Z,31.02
2022-11-12T07:17:39.914Z,31.13
2022-11-12T07:20:44.120Z,32.75
2022-11-12T07:23:48.511Z,31.73
2022-11-12T07:26:53.133Z,30.67
2022-11-12T07:29:57.975Z,31.95
2022-11-12T07:33:02.544Z,30.30
2022-11-12T07:36:10.928Z,29.02
2022-11-12T07:39:15.015Z,30.30
2022-11-12T07:42:19.269Z,29.75
2022-11-12T07:45:23.456Z,28.90
2022-11-12T07:48:30.145Z,29.00
2022-11-12T07:51:34.815Z,30.10
2022-11-12T07:54:39.133Z,29.02
2022-11-12T07:57:43.308Z,27.42
2022-11-12T08:00:47.924Z,28.27
2022-11-12T08:03:52.560Z,28.83
2022-11-12T08:06:57.247Z,26.65
2022-11-12T08:10:01.716Z,27.75
2022-11-12T08:13:05.947Z,27.35
2022-11-12T08:16:10.338Z,25.60
2022-11-12T08:19:14.626Z,26.40
2022-11-12T08:22:19.713Z,25.30
2022-11-12T08:25:24.498Z,25.67
2022-11-12T08:28:30.186Z,23.70
2022-11-12T08:31:34.638Z,23.27
2022-11-12T08:34:41.364Z,23.80
2022-11-12T08:37:45.834Z,23.02
2022-11-12T08:40:50.636Z,23.67
2022-11-12T08:43:55.149Z,22.42
2022-11-12T08:46:59.556Z,24.48
2022-11-12T08:50:03.808Z,22.65
2022-11-12T08:53:13.576Z,22.90
2022-11-12T08:56:17.974Z,22.50
2022-11-12T08:59:22.376Z,22.15
2022-11-12T09:02:26.759Z,23.17
2022-11-12T09:05:31.524Z,21.30
2022-11-12T09:08:38.068Z,21.88
2022-11-12T09:11:42.997Z,20.27
2022-11-12T09:14:47.616Z,21.20
2022-11-12T09:18:01.670Z,21.58
2022-11-12T09:21:12.524Z,21.30
2022-11-12T09:24:17.219Z,20.17
2022-11-12T09:27:21.557Z,20.17
2022-11-12T09:30:25.838Z,20.60
2022-11-12T09:33:33.864Z,19.92
2022-11-12T09:36:39.954Z,19.15
2022-11-12T09:39:44.700Z,20.33
2022-11-12T09:42:53.450Z,18.98
2022-11-12T09:46:35.322Z,19.27
2022-11-12T09:49:50.246Z,18.95
2022-11-12T09:53:16.978Z,19.55
2022-11-12T09:56:23.864Z,18.08
2022-11-12T09:59:35.280Z,20.20
2022-11-12T10:03:04.515Z,19.10
2022-11-12T10:06:19.400Z,16.58
2022-11-12T10:09:38.134Z,19.77
2022-11-12T10:13:24.474Z,18.63
2022-11-12T10:16:43.885Z,19.05
2022-11-12T10:20:28.970Z,17.23
2022-11-12T10:23:49.423Z,17.52
2022-11-12T10:26:56.979Z,16.45
2022-11-12T10:30:13.488Z,17.58
2022-11-12T10:33:18.062Z,16.13
2022-11-12T10:36:33.748Z,14.77
2022-11-12T10:39:41.882Z,16.02
2022-11-12T10:42:58.542Z,15.23
2022-11-12T10:46:24.795Z,13.63
2022-11-12T10:49:29.274Z,15.70
2022-11-12T10:52:33.972Z,16.23
2022-11-12T10:55:59.386Z,15.13
2022-11-12T10:59:25.413Z,15.10
2022-11-12T11:02:29.819Z,18.25
2022-11-12T11:05:48.025Z,20.85
2022-11-12T11:09:07.843Z,15.15
2022-11-12T11:12:31.809Z,14.75
2022-11-12T11:15:36.814Z,15.60
2022-11-12T11:18:47.702Z,15.20
2022-11-12T11:22:19.075Z,18.00
2022-11-12T11:25:28.373Z,15.63
2022-11-12T11:28:53.515Z,14.20
2022-11-12T11:32:00.758Z,15.93
2022-11-12T11:35:44.725Z,16.13
2022-11-12T11:39:26.748Z,15.48
2022-11-12T11:42:50.463Z,16.55
2022-11-12T11:46:32.736Z,15.30
2022-11-12T11:50:33.751Z,17.05
2022-11-12T11:53:53.695Z,16.38
2022-11-12T11:57:02.379Z,16.27
2022-11-12T12:00:21.257Z,17.50
2022-11-12T12:04:07.867Z,14.25
2022-11-12T12:07:36.689Z,18.70
2022-11-12T12:11:21.087Z,17.65
2022-11-12T12:14:55.074Z,16.02
2022-11-12T12:18:54.944Z,16.03
2022-11-12T12:22:01.348Z,18.77
2022-11-12T12:25:30.111Z,15.90
2022-11-12T12:28:55.196Z,16.15
2022-11-12T12:32:23.082Z,16.38
2022-11-12T12:35:40.802Z,18.08
2022-11-12T12:39:47.871Z,15.48
2022-11-12T12:43:27.472Z,16.48
2022-11-12T12:46:41.068Z,14.77
2022-11-12T12:49:48.980Z,13.20
2022-11-12T12:53:21.976Z,13.20
2022-11-12T12:56:31.775Z,14.68
2022-11-12T12:59:37.113Z,14.68
2022-11-12T13:02:42.242Z,14.93
2022-11-12T13:06:05.589Z,13.30
2022-11-12T13:09:15.730Z,15.70
2022-11-12T13:12:19.798Z,15.15
2022-11-12T13:15:44.734Z,15.55
2022-11-12T13:18:51.673Z,18.02
2022-11-12T13:22:17.791Z,16.83
2022-11-12T13:25:22.213Z,16.45
2022-11-12T13:28:26.947Z,14.98
2022-11-12T13:31:34.097Z,17.27
2022-11-12T13:34:38.845Z,17.77
2022-11-12T13:38:01.735Z,17.50
2022-11-12T13:41:42.515Z,17.15
2022-11-12T13:44:53.425Z,16.08
2022-11-12T13:48:00.282Z,14.77
2022-11-12T13:51:38.378Z,16.63
2022-11-12T13:54:43.049Z,14.70
2022-11-12T13:57:57.481Z,14.55
2022-11-12T14:04:13.627Z,13.40
2022-11-12T14:08:01.044Z,14.88
2022-11-12T14:11:26.997Z,14.70
2022-11-12T14:18:09.016Z,14.43
2022-11-12T14:21:18.190Z,15.25
2022-11-12T14:24:23.534Z,15.48
2022-11-12T14:27:33.916Z,15.75
2022-11-12T14:30:44.773Z,15.88
2022-11-12T14:33:49.218Z,17.45
2022-11-12T14:36:57.494Z,15.50
2022-11-12T14:40:02.004Z,15.48
2022-11-12T14:43:06.774Z,16.63
2022-11-12T14:46:39.653Z,16.25
2022-11-12T14:49:49.008Z,15.63
2022-11-12T14:53:07.145Z,16.88
2022-11-12T14:56:48.788Z,22.23
2022-11-12T14:59:53.609Z,17.23
2022-11-12T15:03:01.971Z,17.45
2022-11-12T15:06:06.440Z,17.08
2022-11-12T15:09:10.773Z,17.60
2022-11-12T15:12:30.610Z,16.85
2022-11-12T15:15:49.556Z,16.45
2022-11-12T15:19:24.465Z,18.00
2022-11-12T15:22:34.408Z,16.92
2022-11-12T15:25:38.524Z,15.77
2022-11-12T15:29:02.775Z,16.60
2022-11-12T15:32:13.739Z,15.85
2022-11-12T15:35:30.650Z,16.25
2022-11-12T15:38:37.836Z,14.80
2022-11-12T15:41:42.366Z,14.80
2022-11-12T15:44:47.575Z,15.85
2022-11-12T15:47:52.810Z,16.25
2022-11-12T15:50:56.996Z,16.45
2022-11-12T15:57:05.548Z,16.85
2022-11-12T16:00:18.170Z,15.05
2022-11-12T16:03:23.251Z,16.67
2022-11-12T16:06:27.733Z,15.65
2022-11-12T16:15:41.080Z,14.80
2022-11-12T16:18:45.378Z,16.00
2022-11-12T16:21:49.724Z,15.90
2022-11-12T16:24:53.961Z,15.60
2022-11-12T16:27:59.561Z,16.73
2022-11-12T16:31:03.954Z,15.95
2022-11-12T16:34:08.346Z,15.15
2022-11-12T16:37:14.146Z,16.13
2022-11-12T16:40:25.785Z,15.70
2022-11-12T16:43:30.342Z,14.93
2022-11-12T16:46:40.300Z,15.07
2022-11-12T16:49:44.721Z,16.33
2022-11-12T16:52:49.673Z,15.98
2022-11-12T16:55:56.414Z,14.90
2022-11-12T16:59:00.938Z,14.48
2022-11-12T17:02:13.956Z,14.93
2022-11-12T17:05:27.490Z,14.38
2022-11-12T17:08:34.110Z,16.53
2022-11-12T17:11:38.947Z,14.30
2022-11-12T17:14:43.609Z,13.95
2022-11-12T17:17:48.169Z,14.18
2022-11-12T17:20:52.711Z,14.73
2022-11-12T17:23:58.667Z,14.57
2022-11-12T17:27:03.568Z,14.68
2022-11-12T17:30:08.466Z,13.73
2022-11-12T17:33:12.929Z,13.25
2022-11-12T17:36:21.858Z,13.32
2022-11-12T17:39:27.329Z,14.55
2022-11-12T17:42:31.786Z,13.45
2022-11-12T17:45:36.151Z,14.80
2022-11-12T17:48:41.253Z,30.42
2022-11-12T17:51:45.713Z,21.38
2022-11-12T17:54:49.905Z,16.40
2022-11-12T17:57:54.528Z,18.20
2022-11-12T18:01:19.810Z,25.63
2022-11-12T18:04:26.554Z,27.45
2022-11-12T18:07:33.142Z,66.13
2022-11-12T18:10:38.575Z,39.40
2022-11-12T18:13:43.130Z,34.65
2022-11-12T18:16:48.347Z,23.30
2022-11-12T18:19:52.527Z,16.05
2022-11-12T18:22:56.955Z,19.30
2022-11-12T18:26:01.383Z,21.60
2022-11-12T18:29:07.542Z,84.57
2022-11-12T18:32:13.788Z,72.53
2022-11-12T18:35:18.888Z,68.97
2022-11-12T18:38:23.244Z,40.17
2022-11-12T18:41:30.574Z,82.22
2022-11-12T18:44:36.795Z,75.03
2022-11-12T18:47:41.455Z,61.78
2022-11-12T18:50:46.175Z,42.92
2022-11-12T18:53:55.532Z,18.33
2022-11-12T18:57:01.079Z,13.05
2022-11-12T19:00:06.331Z,38.28
2022-11-12T19:03:10.854Z,14.10
2022-11-12T19:06:16.622Z,12.38
2022-11-12T19:09:21.159Z,14.57
2022-11-12T19:12:25.446Z,21.10
2022-11-12T19:15:34.030Z,15.20
2022-11-12T19:18:40.298Z,15.20
2022-11-12T19:21:44.736Z,22.30
2022-11-12T19:24:49.150Z,16.08
2022-11-12T19:27:53.828Z,15.77
2022-11-12T19:31:02.659Z,15.23
2022-11-12T19:34:06.943Z,15.70
2022-11-12T19:40:35.341Z,16.50
2022-11-12T19:43:41.552Z,15.45
2022-11-12T19:46:45.668Z,16.52
2022-11-12T19:49:50.084Z,15.38
2022-11-12T19:52:54.870Z,13.77
2022-11-12T19:56:04.825Z,15.48
2022-11-12T19:59:10.057Z,15.02
2022-11-12T20:02:15.007Z,16.50
2022-11-12T20:05:19.343Z,13.25
2022-11-12T20:08:26.970Z,17.55
2022-11-12T20:11:31.627Z,16.25
2022-11-12T20:14:36.205Z,15.93
2022-11-12T20:17:40.870Z,12.35
2022-11-12T20:20:57.160Z,12.60
2022-11-12T20:24:01.801Z,12.13
2022-11-12T20:27:07.706Z,10.90
2022-11-12T20:30:12.819Z,11.25
2022-11-12T20:33:17.304Z,11.93
2022-11-12T20:36:23.123Z,11.63
2022-11-12T20:39:27.729Z,12.88
2022-11-12T20:42:32.047Z,13.13
2022-11-12T20:45:36.477Z,12.55
2022-11-12T20:48:43.607Z,12.57
2022-11-12T20:51:49.053Z,13.70
2022-11-12T20:54:53.574Z,13.30
2022-11-12T20:57:57.995Z,13.27
2022-11-12T21:01:04.177Z,13.60
2022-11-12T21:04:12.318Z,14.27
2022-11-12T21:07:16.632Z,14.63
2022-11-12T21:10:21.439Z,13.20
2022-11-12T21:13:27.957Z,14.13
2022-11-12T21:16:32.506Z,13.63
2022-11-12T21:19:37.342Z,14.05
2022-11-12T21:22:41.517Z,13.45
2022-11-12T21:25:46.322Z,14.27
2022-11-12T21:28:53.982Z,13.32
2022-11-12T21:31:58.620Z,14.40
2022-11-12T21:35:03.057Z,14.40
2022-11-12T21:38:07.448Z,15.18
2022-11-12T21:41:19.053Z,14.68
2022-11-12T21:44:24.128Z,14.55
2022-11-12T21:47:29.005Z,14.13
2022-11-12T21:50:33.558Z,14.70
2022-11-12T21:53:40.777Z,14.05
2022-11-12T21:56:46.069Z,14.40
2022-11-12T21:59:50.501Z,15.50
2022-11-12T22:02:58.034Z,13.10
2022-11-12T22:06:04.816Z,13.73
2022-11-12T22:09:09.062Z,15.05
2022-11-12T22:12:13.843Z,14.27
2022-11-12T22:15:24.004Z,13.98
2022-11-12T22:18:29.460Z,14.40
2022-11-12T22:21:40.040Z,14.25
2022-11-12T22:24:44.679Z,14.38
2022-11-12T22:27:49.622Z,13.75
2022-11-12T22:30:55.006Z,14.52
2022-11-12T22:34:02.173Z,13.93
2022-11-12T22:37:06.588Z,14.68
2022-11-12T22:40:13.724Z,15.13
2022-11-12T22:43:18.619Z,15.75
2022-11-12T22:46:26.538Z,14.90
2022-11-12T22:49:31.453Z,14.07
2022-11-12T22:52:36.367Z,14.93
2022-11-12T22:55:41.044Z,15.23
2022-11-12T22:58:47.173Z,14.60
2022-11-12T23:01:51.644Z,15.23
2022-11-12T23:04:56.304Z,14.60
2022-11-12T23:08:00.958Z,15.20
2022-11-12T23:11:09.494Z,15.68
2022-11-12T23:14:13.867Z,13.98
2022-11-12T23:20:22.275Z,13.65
2022-11-12T23:23:26.539Z,14.02
2022-11-12T23:26:31.263Z,14.30
2022-11-12T23:29:35.982Z,14.75
2022-11-12T23:32:40.210Z,13.73
2022-11-12T23:42:05.495Z,14.93
2022-11-12T23:45:10.731Z,14.85
2022-11-12T23:48:14.813Z,14.45
2022-11-12T23:51:21.115Z,16.05
2022-11-12T23:54:25.342Z,13.40
2022-11-12T23:57:30.105Z,14.75
